createdAt,value
2018-06-22T00:00:00.612Z,14.6
2018-06-22T00:00:04.827Z,14.6
2018-06-22T00:00:09.034Z,14.59
2018-06-22T00:00:13.350Z,14.59
2018-06-22T00:00:17.660Z,14.6
2018-06-22T00:00:21.902Z,14.59
2018-06-22T00:00:26.121Z,14.58
2018-06-22T00:00:30.330Z,14.57
2018-06-22T00:00:34.653Z,14.59
2018-06-22T00:00:38.863Z,14.57
2018-06-22T00:00:43.176Z,14.56
2018-06-22T00:00:50.308Z,14.56
2018-06-22T00:00:54.619Z,14.56
2018-06-22T00:00:58.932Z,14.55
2018-06-22T00:01:02.931Z,14.55
2018-06-22T00:01:06.921Z,14.54
2018-06-22T00:01:11.122Z,14.55
2018-06-22T00:01:15.326Z,14.54
2018-06-22T00:01:19.538Z,14.54
2018-06-22T00:01:23.639Z,14.54
2018-06-22T00:01:27.841Z,14.52
2018-06-22T00:01:31.937Z,14.53
2018-06-22T00:01:36.142Z,14.52
2018-06-22T00:01:40.345Z,14.52
2018-06-22T00:01:44.648Z,14.52
2018-06-22T00:01:48.856Z,14.5
2018-06-22T00:01:58.193Z,14.51
2018-06-22T00:02:02.286Z,14.5
2018-06-22T00:02:06.490Z,14.49
2018-06-22T00:02:10.693Z,14.49
2018-06-22T00:02:15.008Z,14.49
2018-06-22T00:02:19.121Z,14.49
2018-06-22T00:02:23.433Z,14.48
2018-06-22T00:02:27.535Z,14.47
2018-06-22T00:02:31.741Z,14.47
2018-06-22T00:02:48.682Z,14.46
2018-06-22T00:02:52.994Z,14.44
2018-06-22T00:02:57.197Z,14.45
2018-06-22T00:03:01.509Z,14.44
2018-06-22T00:03:24.927Z,14.41
2018-06-22T00:03:35.500Z,14.4
2018-06-22T00:03:39.712Z,14.4
2018-06-22T00:03:43.923Z,14.4
2018-06-22T00:03:48.128Z,14.39
2018-06-22T00:03:52.437Z,14.39
2018-06-22T00:03:56.436Z,14.38
2018-06-22T00:04:00.645Z,14.38
2018-06-22T00:04:06.156Z,14.38
2018-06-22T00:04:10.249Z,14.37
2018-06-22T00:04:14.450Z,14.37
2018-06-22T00:04:18.657Z,14.37
2018-06-22T00:04:22.867Z,14.36
2018-06-22T00:04:27.178Z,14.37
2018-06-22T00:04:31.285Z,14.36
2018-06-22T00:04:35.604Z,14.35
2018-06-22T00:04:39.804Z,14.34
2018-06-22T00:04:44.011Z,14.34
2018-06-22T00:04:48.227Z,14.34
2018-06-22T00:04:52.427Z,14.34
2018-06-22T00:04:56.636Z,14.33
2018-06-22T00:05:00.838Z,14.33
2018-06-22T00:05:04.724Z,14.32
2018-06-22T00:05:08.712Z,14.32
2018-06-22T00:05:13.019Z,14.32
2018-06-22T00:05:17.116Z,14.31
2018-06-22T00:05:21.423Z,14.3
2018-06-22T00:05:25.625Z,14.29
2018-06-22T00:05:29.724Z,14.29
2018-06-22T00:05:33.923Z,14.29
2018-06-22T00:05:38.236Z,14.29
2018-06-22T00:05:42.559Z,14.28
2018-06-22T00:05:47.003Z,14.27
2018-06-22T00:05:51.764Z,14.28
2018-06-22T00:05:56.271Z,14.26
2018-06-22T00:06:00.479Z,14.27
2018-06-22T00:06:04.712Z,14.26
2018-06-22T00:06:08.808Z,14.26
2018-06-22T00:06:13.023Z,14.25
2018-06-22T00:06:17.227Z,14.24
2018-06-22T00:06:21.220Z,14.25
2018-06-22T00:06:25.426Z,14.24
2018-06-22T00:06:29.739Z,14.23
2018-06-22T00:06:33.835Z,14.23
2018-06-22T00:06:38.036Z,14.23
2018-06-22T00:06:42.348Z,14.23
2018-06-22T00:06:46.557Z,14.22
2018-06-22T00:06:50.652Z,14.22
2018-06-22T00:06:54.645Z,14.21
2018-06-22T00:06:58.895Z,14.21
2018-06-22T00:07:03.107Z,14.2
2018-06-22T00:07:07.420Z,14.19
2018-06-22T00:07:11.729Z,14.19
2018-06-22T00:07:16.035Z,14.19
2018-06-22T00:07:20.230Z,14.19
2018-06-22T00:07:24.428Z,14.18
2018-06-22T00:07:28.843Z,14.18
2018-06-22T00:07:33.172Z,14.17
2018-06-22T00:07:37.353Z,14.17
2018-06-22T00:07:41.555Z,14.17
2018-06-22T00:07:45.759Z,14.16
2018-06-22T00:07:49.959Z,14.15
2018-06-22T00:07:54.368Z,14.15
2018-06-22T00:07:58.573Z,14.16
2018-06-22T00:08:02.791Z,14.15
2018-06-22T00:08:06.687Z,14.14
2018-06-22T00:08:10.780Z,14.14
2018-06-22T00:08:14.984Z,14.14
2018-06-22T00:08:19.189Z,14.13
2018-06-22T00:08:23.396Z,14.12
2018-06-22T00:08:27.384Z,14.12
2018-06-22T00:08:31.585Z,14.11
2018-06-22T00:08:35.681Z,14.11
2018-06-22T00:08:39.776Z,14.11
2018-06-22T00:08:43.980Z,14.1
2018-06-22T00:08:48.303Z,14.09
2018-06-22T00:08:52.609Z,14.08
2018-06-22T00:08:56.601Z,14.08
2018-06-22T00:09:00.704Z,14.08
2018-06-22T00:09:04.800Z,14.08
2018-06-22T00:09:09.003Z,14.08
2018-06-22T00:09:13.207Z,14.07
2018-06-22T00:09:17.317Z,14.06
2018-06-22T00:09:21.633Z,14.06
2018-06-22T00:09:25.837Z,14.05
2018-06-22T00:09:29.941Z,14.05
2018-06-22T00:09:34.285Z,14.05
2018-06-22T00:09:38.485Z,14.03
2018-06-22T00:09:42.593Z,14.04
2018-06-22T00:09:46.803Z,14.03
2018-06-22T00:09:50.903Z,14.02
2018-06-22T00:09:55.270Z,14.02
2018-06-22T00:09:59.471Z,14.02
2018-06-22T00:10:03.568Z,14.01
2018-06-22T00:10:07.771Z,14
2018-06-22T00:10:11.977Z,14
2018-06-22T00:10:16.290Z,14
2018-06-22T00:10:20.505Z,13.99
2018-06-22T00:10:24.705Z,13.99
2018-06-22T00:10:29.018Z,13.99
2018-06-22T00:10:33.827Z,13.99
2018-06-22T00:10:38.067Z,13.98
2018-06-22T00:10:42.271Z,13.98
2018-06-22T00:10:46.602Z,13.97
2018-06-22T00:10:50.918Z,13.96
2018-06-22T00:10:55.229Z,13.97
2018-06-22T00:10:59.329Z,13.95
2018-06-22T00:11:03.324Z,13.94
2018-06-22T00:11:07.313Z,13.94
2018-06-22T00:11:11.518Z,13.94
2018-06-22T00:11:15.724Z,13.93
2018-06-22T00:11:19.923Z,13.93
2018-06-22T00:11:24.028Z,13.93
2018-06-22T00:11:28.015Z,13.92
2018-06-22T00:11:32.014Z,13.91
2018-06-22T00:11:36.108Z,13.91
2018-06-22T00:11:40.416Z,13.9
2018-06-22T00:11:44.614Z,13.9
2018-06-22T00:11:48.823Z,13.91
2018-06-22T00:11:53.139Z,13.89
2018-06-22T00:11:57.472Z,13.89
2018-06-22T00:12:01.675Z,13.89
2018-06-22T00:12:05.876Z,13.87
2018-06-22T00:12:10.186Z,13.88
2018-06-22T00:12:14.494Z,13.87
2018-06-22T00:12:18.699Z,13.87
2018-06-22T00:12:22.901Z,13.86
2018-06-22T00:12:27.218Z,13.85
2018-06-22T00:12:31.423Z,13.85
2018-06-22T00:12:35.677Z,13.85
2018-06-22T00:12:39.886Z,13.84
2018-06-22T00:12:44.206Z,13.84
2018-06-22T00:12:49.894Z,13.84
2018-06-22T00:12:54.207Z,13.83
2018-06-22T00:12:58.421Z,13.83
2018-06-22T00:13:02.520Z,13.83
2018-06-22T00:13:06.834Z,13.83
2018-06-22T00:13:11.043Z,13.81
2018-06-22T00:13:15.253Z,13.81
2018-06-22T00:13:19.455Z,13.8
2018-06-22T00:13:23.552Z,13.8
2018-06-22T00:13:28.472Z,13.79
2018-06-22T00:13:32.795Z,13.79
2018-06-22T00:13:37.009Z,13.79
2018-06-22T00:13:40.999Z,13.78
2018-06-22T00:13:45.311Z,13.78
2018-06-22T00:13:49.513Z,13.77
2018-06-22T00:13:53.712Z,13.78
2018-06-22T00:13:57.921Z,13.76
2018-06-22T00:14:01.804Z,13.76
2018-06-22T00:14:06.015Z,13.76
2018-06-22T00:14:10.222Z,13.76
2018-06-22T00:14:14.432Z,13.75
2018-06-22T00:14:18.631Z,13.74
2018-06-22T00:14:22.835Z,13.74
2018-06-22T00:14:27.149Z,13.74
2018-06-22T00:14:31.459Z,13.74
2018-06-22T00:14:35.662Z,13.73
2018-06-22T00:14:39.653Z,13.72
2018-06-22T00:14:43.861Z,13.72
2018-06-22T00:14:48.065Z,13.72
2018-06-22T00:14:52.374Z,13.71
2018-06-22T00:14:56.691Z,13.71
2018-06-22T00:15:00.685Z,13.7
2018-06-22T00:15:04.682Z,13.71
2018-06-22T00:15:08.790Z,13.7
2018-06-22T00:15:12.994Z,13.69
2018-06-22T00:15:17.242Z,13.69
2018-06-22T00:15:21.351Z,13.69
2018-06-22T00:15:25.564Z,13.69
2018-06-22T00:15:29.878Z,13.68
2018-06-22T00:15:34.086Z,13.68
2018-06-22T00:15:38.398Z,13.67
2018-06-22T00:15:42.705Z,13.67
2018-06-22T00:15:46.909Z,13.67
2018-06-22T00:15:51.229Z,13.66
2018-06-22T00:15:55.332Z,13.66
2018-06-22T00:15:59.528Z,13.66
2018-06-22T00:16:03.624Z,13.65
2018-06-22T00:16:07.614Z,13.65
2018-06-22T00:16:11.496Z,13.64
2018-06-22T00:16:15.700Z,13.65
2018-06-22T00:16:19.689Z,13.64
2018-06-22T00:16:23.891Z,13.64
2018-06-22T00:16:27.981Z,13.63
2018-06-22T00:16:32.288Z,13.63
2018-06-22T00:16:36.391Z,13.62
2018-06-22T00:16:40.596Z,13.62
2018-06-22T00:16:44.799Z,13.61
2018-06-22T00:16:48.892Z,13.62
2018-06-22T00:16:53.204Z,13.61
2018-06-22T00:17:03.673Z,13.6
2018-06-22T00:17:07.987Z,13.6
2018-06-22T00:17:12.194Z,13.6
2018-06-22T00:17:16.398Z,13.6
2018-06-22T00:17:20.491Z,13.59
2018-06-22T00:17:24.809Z,13.59
2018-06-22T00:17:29.008Z,13.58
2018-06-22T00:17:33.208Z,13.59
2018-06-22T00:17:37.421Z,13.57
2018-06-22T00:17:41.736Z,13.58
2018-06-22T00:17:45.833Z,13.57
2018-06-22T00:17:50.151Z,13.57
2018-06-22T00:17:54.461Z,13.56
2018-06-22T00:17:58.669Z,13.55
2018-06-22T00:18:02.791Z,13.55
2018-06-22T00:18:06.778Z,13.55
2018-06-22T00:18:11.129Z,13.55
2018-06-22T00:18:15.438Z,13.55
2018-06-22T00:18:19.756Z,13.53
2018-06-22T00:18:24.019Z,13.54
2018-06-22T00:18:28.334Z,13.54
2018-06-22T00:18:32.545Z,13.53
2018-06-22T00:18:36.872Z,13.52
2018-06-22T00:18:41.182Z,13.52
2018-06-22T00:18:45.393Z,13.52
2018-06-22T00:18:49.593Z,13.51
2018-06-22T00:18:53.908Z,13.51
2018-06-22T00:18:58.227Z,13.51
2018-06-22T00:19:02.424Z,13.5
2018-06-22T00:19:06.694Z,13.49
2018-06-22T00:19:10.918Z,13.49
2018-06-22T00:19:15.120Z,13.49
2018-06-22T00:19:19.429Z,13.48
2018-06-22T00:19:23.634Z,13.47
2018-06-22T00:19:27.947Z,13.47
2018-06-22T00:19:32.261Z,13.47
2018-06-22T00:19:36.576Z,13.46
2018-06-22T00:19:40.670Z,13.47
2018-06-22T00:19:44.763Z,13.46
2018-06-22T00:19:48.973Z,13.45
2018-06-22T00:19:53.069Z,13.45
2018-06-22T00:19:57.171Z,13.45
2018-06-22T00:20:01.382Z,13.44
2018-06-22T00:20:05.593Z,13.43
2018-06-22T00:20:09.642Z,13.43
2018-06-22T00:20:13.950Z,13.43
2018-06-22T00:20:18.165Z,13.43
2018-06-22T00:20:22.269Z,13.42
2018-06-22T00:20:26.579Z,13.41
2018-06-22T00:20:30.775Z,13.41
2018-06-22T00:20:35.087Z,13.41
2018-06-22T00:20:39.174Z,13.4
2018-06-22T00:20:43.379Z,13.4
2018-06-22T00:20:47.693Z,13.39
2018-06-22T00:20:52.029Z,13.39
2018-06-22T00:20:56.227Z,13.38
2018-06-22T00:21:00.429Z,13.38
2018-06-22T00:21:04.530Z,13.37
2018-06-22T00:21:08.514Z,13.37
2018-06-22T00:21:12.612Z,13.36
2018-06-22T00:21:16.820Z,13.36
2018-06-22T00:21:21.034Z,13.35
2018-06-22T00:21:25.344Z,13.35
2018-06-22T00:21:29.333Z,13.35
2018-06-22T00:21:33.430Z,13.34
2018-06-22T00:21:37.743Z,13.34
2018-06-22T00:21:42.047Z,13.34
2018-06-22T00:21:46.253Z,13.34
2018-06-22T00:21:50.466Z,13.33
2018-06-22T00:21:55.990Z,13.32
2018-06-22T00:22:00.303Z,13.32
2018-06-22T00:22:04.641Z,13.32
2018-06-22T00:22:08.949Z,13.31
2018-06-22T00:22:13.265Z,13.31
2018-06-22T00:22:17.580Z,13.3
2018-06-22T00:22:21.780Z,13.29
2018-06-22T00:22:25.982Z,13.29
2018-06-22T00:22:30.091Z,13.28
2018-06-22T00:22:34.186Z,13.28
2018-06-22T00:22:38.276Z,13.28
2018-06-22T00:22:42.365Z,13.27
2018-06-22T00:22:46.682Z,13.28
2018-06-22T00:22:50.991Z,13.27
2018-06-22T00:23:14.394Z,13.25
2018-06-22T00:23:18.486Z,13.24
2018-06-22T00:23:22.688Z,13.24
2018-06-22T00:23:26.895Z,13.23
2018-06-22T00:23:31.098Z,13.22
2018-06-22T00:23:35.314Z,13.23
2018-06-22T00:23:39.411Z,13.22
2018-06-22T00:23:43.515Z,13.22
2018-06-22T00:23:47.713Z,13.21
2018-06-22T00:23:51.810Z,13.21
2018-06-22T00:23:56.012Z,13.2
2018-06-22T00:24:00.107Z,13.2
2018-06-22T00:24:04.314Z,13.2
2018-06-22T00:24:08.298Z,13.2
2018-06-22T00:24:12.499Z,13.19
2018-06-22T00:24:16.807Z,13.19
2018-06-22T00:24:21.013Z,13.18
2018-06-22T00:24:25.317Z,13.18
2018-06-22T00:24:29.628Z,13.18
2018-06-22T00:24:33.839Z,13.18
2018-06-22T00:24:38.148Z,13.17
2018-06-22T00:24:42.461Z,13.16
2018-06-22T00:24:46.768Z,13.16
2018-06-22T00:24:51.083Z,13.16
2018-06-22T00:24:55.394Z,13.15
2018-06-22T00:24:59.708Z,13.15
2018-06-22T00:25:03.925Z,13.13
2018-06-22T00:25:08.236Z,13.12
2018-06-22T00:25:12.335Z,13.13
2018-06-22T00:25:16.436Z,13.12
2018-06-22T00:25:20.759Z,13.12
2018-06-22T00:25:25.073Z,13.12
2018-06-22T00:25:29.380Z,13.11
2018-06-22T00:25:33.485Z,13.11
2018-06-22T00:25:37.693Z,13.1
2018-06-22T00:25:41.898Z,13.1
2018-06-22T00:25:46.208Z,13.1
2018-06-22T00:25:50.519Z,13.09
2018-06-22T00:25:54.727Z,13.09
2018-06-22T00:25:58.818Z,13.08
2018-06-22T00:26:02.914Z,13.08
2018-06-22T00:26:07.008Z,13.09
2018-06-22T00:26:11.214Z,13.07
2018-06-22T00:26:15.418Z,13.08
2018-06-22T00:26:19.512Z,13.07
2018-06-22T00:26:23.818Z,13.06
2018-06-22T00:26:28.031Z,13.06
2018-06-22T00:26:32.350Z,13.05
2018-06-22T00:26:36.453Z,13.05
2018-06-22T00:26:40.655Z,13.05
2018-06-22T00:26:44.855Z,13.05
2018-06-22T00:26:48.961Z,13.05
2018-06-22T00:26:53.165Z,13.04
2018-06-22T00:26:57.483Z,13.04
2018-06-22T00:27:01.694Z,13.04
2018-06-22T00:27:05.907Z,13.03
2018-06-22T00:27:10.221Z,13.03
2018-06-22T00:27:14.324Z,13.02
2018-06-22T00:27:18.533Z,13.02
2018-06-22T00:27:22.650Z,13.02
2018-06-22T00:27:26.960Z,13.02
2018-06-22T00:27:31.069Z,13.02
2018-06-22T00:27:35.427Z,13.01
2018-06-22T00:27:39.519Z,13.01
2018-06-22T00:27:43.722Z,13.01
2018-06-22T00:27:47.943Z,13
2018-06-22T00:27:52.332Z,13
2018-06-22T00:27:56.536Z,13
2018-06-22T00:28:00.847Z,13
2018-06-22T00:28:04.743Z,12.99
2018-06-22T00:28:08.841Z,12.99
2018-06-22T00:28:13.163Z,12.99
2018-06-22T00:28:17.259Z,12.98
2018-06-22T00:28:21.147Z,12.98
2018-06-22T00:28:25.462Z,12.98
2018-06-22T00:28:29.774Z,12.97
2018-06-22T00:28:33.987Z,12.97
2018-06-22T00:28:38.313Z,12.97
2018-06-22T00:28:42.514Z,12.96
2018-06-22T00:28:46.725Z,12.96
2018-06-22T00:28:50.928Z,12.96
2018-06-22T00:28:55.148Z,12.96
2018-06-22T00:28:59.462Z,12.95
2018-06-22T00:29:03.563Z,12.96
2018-06-22T00:29:07.773Z,12.95
2018-06-22T00:29:11.980Z,12.95
2018-06-22T00:29:16.185Z,12.94
2018-06-22T00:29:20.283Z,12.95
2018-06-22T00:29:24.485Z,12.94
2018-06-22T00:29:28.471Z,12.94
2018-06-22T00:29:32.677Z,12.93
2018-06-22T00:29:36.889Z,12.92
2018-06-22T00:29:41.216Z,12.93
2018-06-22T00:29:45.547Z,12.92
2018-06-22T00:29:49.746Z,12.92
2018-06-22T00:29:54.065Z,12.92
2018-06-22T00:29:58.268Z,12.92
2018-06-22T00:30:02.478Z,12.91
2018-06-22T00:30:06.468Z,12.9
2018-06-22T00:30:10.782Z,12.9
2018-06-22T00:30:14.880Z,12.9
2018-06-22T00:30:18.974Z,12.9
2018-06-22T00:30:23.176Z,12.89
2018-06-22T00:30:27.285Z,12.9
2018-06-22T00:30:31.489Z,12.89
2018-06-22T00:30:35.693Z,12.88
2018-06-22T00:30:39.889Z,12.88
2018-06-22T00:30:44.201Z,12.88
2018-06-22T00:30:48.295Z,12.88
2018-06-22T00:30:52.495Z,12.88
2018-06-22T00:30:56.592Z,12.87
2018-06-22T00:31:00.904Z,12.87
2018-06-22T00:31:04.895Z,12.87
2018-06-22T00:31:09.095Z,12.87
2018-06-22T00:31:13.200Z,12.87
2018-06-22T00:31:17.515Z,12.86
2018-06-22T00:31:21.611Z,12.86
2018-06-22T00:31:25.705Z,12.86
2018-06-22T00:31:29.907Z,12.85
2018-06-22T00:31:34.006Z,12.85
2018-06-22T00:31:38.304Z,12.85
2018-06-22T00:31:42.402Z,12.84
2018-06-22T00:31:46.652Z,12.85
2018-06-22T00:31:50.963Z,12.84
2018-06-22T00:31:55.275Z,12.84
2018-06-22T00:31:59.369Z,12.84
2018-06-22T00:32:03.689Z,12.84
2018-06-22T00:32:07.681Z,12.83
2018-06-22T00:32:11.772Z,12.83
2018-06-22T00:32:15.872Z,12.84
2018-06-22T00:32:20.076Z,12.82
2018-06-22T00:32:24.172Z,12.82
2018-06-22T00:32:28.479Z,12.82
2018-06-22T00:32:32.681Z,12.82
2018-06-22T00:32:36.989Z,12.82
2018-06-22T00:32:41.196Z,12.82
2018-06-22T00:32:45.518Z,12.82
2018-06-22T00:32:49.721Z,12.81
2018-06-22T00:32:53.921Z,12.8
2018-06-22T00:32:58.024Z,12.8
2018-06-22T00:33:02.117Z,12.8
2018-06-22T00:33:06.338Z,12.81
2018-06-22T00:33:10.645Z,12.8
2018-06-22T00:33:14.960Z,12.79
2018-06-22T00:33:19.279Z,12.79
2018-06-22T00:33:23.482Z,12.79
2018-06-22T00:33:27.796Z,12.78
2018-06-22T00:33:32.102Z,12.78
2018-06-22T00:33:36.412Z,12.78
2018-06-22T00:33:40.616Z,12.78
2018-06-22T00:33:44.815Z,12.78
2018-06-22T00:33:49.126Z,12.78
2018-06-22T00:33:53.219Z,12.77
2018-06-22T00:33:57.529Z,12.78
2018-06-22T00:34:01.635Z,12.77
2018-06-22T00:34:05.740Z,12.77
2018-06-22T00:34:09.844Z,12.77
2018-06-22T00:34:13.951Z,12.76
2018-06-22T00:34:18.162Z,12.76
2018-06-22T00:34:22.479Z,12.77
2018-06-22T00:34:26.572Z,12.76
2018-06-22T00:34:30.670Z,12.76
2018-06-22T00:34:34.878Z,12.75
2018-06-22T00:34:38.974Z,12.75
2018-06-22T00:34:43.286Z,12.75
2018-06-22T00:34:47.276Z,12.75
2018-06-22T00:34:51.493Z,12.74
2018-06-22T00:34:55.801Z,12.74
2018-06-22T00:34:59.788Z,12.74
2018-06-22T00:35:03.776Z,12.74
2018-06-22T00:35:07.768Z,12.74
2018-06-22T00:35:12.080Z,12.74
2018-06-22T00:35:16.287Z,12.74
2018-06-22T00:35:20.479Z,12.73
2018-06-22T00:35:24.469Z,12.73
2018-06-22T00:35:28.677Z,12.74
2018-06-22T00:35:32.881Z,12.72
2018-06-22T00:35:37.088Z,12.71
2018-06-22T00:35:41.396Z,12.72
2018-06-22T00:35:45.713Z,12.72
2018-06-22T00:35:49.920Z,12.73
2018-06-22T00:35:54.137Z,12.72
2018-06-22T00:35:58.338Z,12.71
2018-06-22T00:36:02.550Z,12.71
2018-06-22T00:36:06.545Z,12.7
2018-06-22T00:36:10.751Z,12.7
2018-06-22T00:36:14.955Z,12.7
2018-06-22T00:36:19.161Z,12.71
2018-06-22T00:36:23.252Z,12.71
2018-06-22T00:36:27.486Z,12.7
2018-06-22T00:36:31.475Z,12.7
2018-06-22T00:36:35.681Z,12.7
2018-06-22T00:36:39.996Z,12.69
2018-06-22T00:36:44.312Z,12.69
2018-06-22T00:36:48.418Z,12.69
2018-06-22T00:36:52.775Z,12.69
2018-06-22T00:36:56.977Z,12.69
2018-06-22T00:37:01.280Z,12.68
2018-06-22T00:37:05.497Z,12.68
2018-06-22T00:37:09.701Z,12.68
2018-06-22T00:37:13.804Z,12.67
2018-06-22T00:37:18.115Z,12.67
2018-06-22T00:37:22.329Z,12.67
2018-06-22T00:37:26.530Z,12.67
2018-06-22T00:37:30.624Z,12.67
2018-06-22T00:37:34.825Z,12.66
2018-06-22T00:37:39.027Z,12.65
2018-06-22T00:37:43.123Z,12.67
2018-06-22T00:37:47.434Z,12.66
2018-06-22T00:37:51.636Z,12.66
2018-06-22T00:37:55.844Z,12.66
2018-06-22T00:38:00.058Z,12.65
2018-06-22T00:38:04.157Z,12.66
2018-06-22T00:38:08.476Z,12.65
2018-06-22T00:38:12.680Z,12.65
2018-06-22T00:38:16.911Z,12.66
2018-06-22T00:38:21.111Z,12.63
2018-06-22T00:38:25.313Z,12.64
2018-06-22T00:38:29.412Z,12.64
2018-06-22T00:38:33.731Z,12.64
2018-06-22T00:38:37.833Z,12.64
2018-06-22T00:38:41.931Z,12.63
2018-06-22T00:38:45.920Z,12.63
2018-06-22T00:38:50.234Z,12.64
2018-06-22T00:38:54.550Z,12.63
2018-06-22T00:38:58.647Z,12.63
2018-06-22T00:39:02.741Z,12.62
2018-06-22T00:39:06.837Z,12.62
2018-06-22T00:39:11.051Z,12.61
2018-06-22T00:39:15.256Z,12.63
2018-06-22T00:39:19.578Z,12.61
2018-06-22T00:39:23.773Z,12.61
2018-06-22T00:39:27.764Z,12.61
2018-06-22T00:39:31.965Z,12.61
2018-06-22T00:39:36.273Z,12.61
2018-06-22T00:39:40.474Z,12.6
2018-06-22T00:39:44.687Z,12.6
2018-06-22T00:39:48.889Z,12.6
2018-06-22T00:39:53.096Z,12.6
2018-06-22T00:39:57.196Z,12.6
2018-06-22T00:40:01.398Z,12.59
2018-06-22T00:40:05.284Z,12.59
2018-06-22T00:40:09.276Z,12.59
2018-06-22T00:40:13.594Z,12.58
2018-06-22T00:40:17.578Z,12.58
2018-06-22T00:40:21.784Z,12.58
2018-06-22T00:40:25.772Z,12.58
2018-06-22T00:40:29.763Z,12.58
2018-06-22T00:40:33.856Z,12.58
2018-06-22T00:40:37.956Z,12.58
2018-06-22T00:40:42.158Z,12.57
2018-06-22T00:40:46.362Z,12.57
2018-06-22T00:40:50.571Z,12.57
2018-06-22T00:40:54.890Z,12.57
2018-06-22T00:40:58.997Z,12.56
2018-06-22T00:41:03.305Z,12.56
2018-06-22T00:41:07.514Z,12.55
2018-06-22T00:41:11.715Z,12.56
2018-06-22T00:41:15.927Z,12.56
2018-06-22T00:41:20.133Z,12.55
2018-06-22T00:41:24.441Z,12.55
2018-06-22T00:41:28.435Z,12.56
2018-06-22T00:41:32.528Z,12.55
2018-06-22T00:41:36.837Z,12.55
2018-06-22T00:41:41.046Z,12.55
2018-06-22T00:41:45.363Z,12.54
2018-06-22T00:41:49.668Z,12.54
2018-06-22T00:41:53.870Z,12.54
2018-06-22T00:41:58.074Z,12.54
2018-06-22T00:42:02.387Z,12.54
2018-06-22T00:42:06.590Z,12.54
2018-06-22T00:42:10.684Z,12.53
2018-06-22T00:42:14.885Z,12.54
2018-06-22T00:42:19.089Z,12.53
2018-06-22T00:42:23.183Z,12.54
2018-06-22T00:42:27.441Z,12.53
2018-06-22T00:42:31.647Z,12.53
2018-06-22T00:42:35.856Z,12.53
2018-06-22T00:42:39.954Z,12.53
2018-06-22T00:42:44.266Z,12.52
2018-06-22T00:42:48.583Z,12.52
2018-06-22T00:42:52.841Z,12.51
2018-06-22T00:42:57.054Z,12.51
2018-06-22T00:43:01.362Z,12.51
2018-06-22T00:43:05.351Z,12.52
2018-06-22T00:43:09.557Z,12.51
2018-06-22T00:43:13.649Z,12.51
2018-06-22T00:43:17.848Z,12.51
2018-06-22T00:43:21.834Z,12.5
2018-06-22T00:43:26.149Z,12.51
2018-06-22T00:43:30.242Z,12.5
2018-06-22T00:43:34.341Z,12.5
2018-06-22T00:43:38.434Z,12.5
2018-06-22T00:43:42.430Z,12.5
2018-06-22T00:43:46.739Z,12.49
2018-06-22T00:43:50.838Z,12.48
2018-06-22T00:43:55.047Z,12.48
2018-06-22T00:43:59.252Z,12.48
2018-06-22T00:44:03.454Z,12.48
2018-06-22T00:44:07.551Z,12.47
2018-06-22T00:44:11.753Z,12.46
2018-06-22T00:44:15.952Z,12.47
2018-06-22T00:44:20.272Z,12.46
2018-06-22T00:44:24.477Z,12.46
2018-06-22T00:44:28.360Z,12.47
2018-06-22T00:44:32.560Z,12.46
2018-06-22T00:44:36.761Z,12.46
2018-06-22T00:44:40.965Z,12.45
2018-06-22T00:44:45.168Z,12.46
2018-06-22T00:44:49.364Z,12.46
2018-06-22T00:44:53.678Z,12.45
2018-06-22T00:44:57.880Z,12.45
2018-06-22T00:45:02.088Z,12.45
2018-06-22T00:45:06.185Z,12.45
2018-06-22T00:45:10.174Z,12.44
2018-06-22T00:45:14.489Z,12.43
2018-06-22T00:45:18.703Z,12.44
2018-06-22T00:45:22.905Z,12.44
2018-06-22T00:45:27.108Z,12.43
2018-06-22T00:45:31.199Z,12.42
2018-06-22T00:45:35.513Z,12.43
2018-06-22T00:45:39.716Z,12.42
2018-06-22T00:45:44.024Z,12.42
2018-06-22T00:45:48.233Z,12.42
2018-06-22T00:45:52.439Z,12.43
2018-06-22T00:45:56.639Z,12.42
2018-06-22T00:46:00.735Z,12.42
2018-06-22T00:46:04.511Z,12.41
2018-06-22T00:46:08.715Z,12.41
2018-06-22T00:46:12.822Z,12.41
2018-06-22T00:46:17.027Z,12.41
2018-06-22T00:46:21.232Z,12.41
2018-06-22T00:46:25.114Z,12.4
2018-06-22T00:46:29.317Z,12.41
2018-06-22T00:46:33.416Z,12.4
2018-06-22T00:46:37.727Z,12.4
2018-06-22T00:46:42.066Z,12.4
2018-06-22T00:46:46.386Z,12.39
2018-06-22T00:46:50.701Z,12.39
2018-06-22T00:46:54.902Z,12.39
2018-06-22T00:46:59.109Z,12.39
2018-06-22T00:47:03.204Z,12.39
2018-06-22T00:47:07.324Z,12.39
2018-06-22T00:47:11.630Z,12.39
2018-06-22T00:47:15.938Z,12.39
2018-06-22T00:47:20.146Z,12.38
2018-06-22T00:47:24.352Z,12.39
2018-06-22T00:47:28.557Z,12.37
2018-06-22T00:47:32.658Z,12.37
2018-06-22T00:47:36.861Z,12.38
2018-06-22T00:47:41.169Z,12.38
2018-06-22T00:47:45.485Z,12.38
2018-06-22T00:47:49.795Z,12.36
2018-06-22T00:47:54.111Z,12.37
2018-06-22T00:47:58.314Z,12.37
2018-06-22T00:48:02.406Z,12.37
2018-06-22T00:48:06.395Z,12.37
2018-06-22T00:48:10.604Z,12.37
2018-06-22T00:48:14.593Z,12.36
2018-06-22T00:48:18.902Z,12.37
2018-06-22T00:48:22.889Z,12.36
2018-06-22T00:48:26.985Z,12.36
2018-06-22T00:48:31.294Z,12.36
2018-06-22T00:48:35.389Z,12.35
2018-06-22T00:48:39.595Z,12.35
2018-06-22T00:48:43.801Z,12.35
2018-06-22T00:48:48.004Z,12.35
2018-06-22T00:48:52.214Z,12.35
2018-06-22T00:48:56.521Z,12.35
2018-06-22T00:49:00.733Z,12.35
2018-06-22T00:49:04.827Z,12.34
2018-06-22T00:49:09.141Z,12.34
2018-06-22T00:49:13.457Z,12.33
2018-06-22T00:49:17.661Z,12.34
2018-06-22T00:49:21.760Z,12.33
2018-06-22T00:49:25.856Z,12.34
2018-06-22T00:49:29.946Z,12.34
2018-06-22T00:49:34.090Z,12.33
2018-06-22T00:49:38.190Z,12.33
2018-06-22T00:49:42.503Z,12.33
2018-06-22T00:49:46.717Z,12.33
2018-06-22T00:49:50.928Z,12.33
2018-06-22T00:49:55.241Z,12.32
2018-06-22T00:49:59.554Z,12.33
2018-06-22T00:50:03.910Z,12.32
2018-06-22T00:50:07.901Z,12.31
2018-06-22T00:50:11.894Z,12.31
2018-06-22T00:50:16.207Z,12.32
2018-06-22T00:50:20.519Z,12.32
2018-06-22T00:50:24.724Z,12.31
2018-06-22T00:50:29.034Z,12.31
2018-06-22T00:50:33.242Z,12.31
2018-06-22T00:50:37.335Z,12.31
2018-06-22T00:50:41.481Z,12.3
2018-06-22T00:50:45.687Z,12.3
2018-06-22T00:50:49.888Z,12.3
2018-06-22T00:50:54.206Z,12.29
2018-06-22T00:50:58.323Z,12.29
2018-06-22T00:51:02.642Z,12.3
2018-06-22T00:51:06.629Z,12.29
2018-06-22T00:51:10.827Z,12.3
2018-06-22T00:51:15.032Z,12.3
2018-06-22T00:51:19.126Z,12.3
2018-06-22T00:51:23.331Z,12.29
2018-06-22T00:51:27.535Z,12.29
2018-06-22T00:51:31.738Z,12.28
2018-06-22T00:51:36.047Z,12.28
2018-06-22T00:51:40.247Z,12.29
2018-06-22T00:51:44.464Z,12.28
2018-06-22T00:51:48.566Z,12.28
2018-06-22T00:51:52.876Z,12.27
2018-06-22T00:51:57.179Z,12.27
2018-06-22T00:52:01.384Z,12.27
2018-06-22T00:52:05.587Z,12.27
2018-06-22T00:52:09.893Z,12.27
2018-06-22T00:52:14.089Z,12.27
2018-06-22T00:52:18.394Z,12.26
2018-06-22T00:52:22.487Z,12.26
2018-06-22T00:52:26.688Z,12.26
2018-06-22T00:52:30.786Z,12.26
2018-06-22T00:52:35.091Z,12.25
2018-06-22T00:52:39.293Z,12.26
2018-06-22T00:52:43.501Z,12.25
2018-06-22T00:52:47.702Z,12.25
2018-06-22T00:52:52.009Z,12.25
2018-06-22T00:52:56.217Z,12.25
2018-06-22T00:53:00.417Z,12.24
2018-06-22T00:53:04.512Z,12.24
2018-06-22T00:53:08.715Z,12.24
2018-06-22T00:53:12.919Z,12.24
2018-06-22T00:53:17.116Z,12.24
2018-06-22T00:53:21.425Z,12.24
2018-06-22T00:53:25.413Z,12.24
2018-06-22T00:53:29.666Z,12.24
2018-06-22T00:53:33.985Z,12.23
2018-06-22T00:53:38.196Z,12.23
2018-06-22T00:53:42.183Z,12.23
2018-06-22T00:53:46.493Z,12.22
2018-06-22T00:53:50.805Z,12.22
2018-06-22T00:53:55.007Z,12.22
2018-06-22T00:53:59.207Z,12.22
2018-06-22T00:54:03.526Z,12.22
2018-06-22T00:54:07.739Z,12.22
2018-06-22T00:54:11.829Z,12.21
2018-06-22T00:54:16.150Z,12.21
2018-06-22T00:54:20.457Z,12.21
2018-06-22T00:54:24.657Z,12.21
2018-06-22T00:54:28.750Z,12.2
2018-06-22T00:54:32.841Z,12.2
2018-06-22T00:54:37.043Z,12.2
2018-06-22T00:54:41.254Z,12.2
2018-06-22T00:54:45.562Z,12.19
2018-06-22T00:54:49.870Z,12.19
2018-06-22T00:54:54.072Z,12.19
2018-06-22T00:54:58.277Z,12.19
2018-06-22T00:55:02.372Z,12.18
2018-06-22T00:55:06.475Z,12.19
2018-06-22T00:55:10.787Z,12.18
2018-06-22T00:55:14.886Z,12.18
2018-06-22T00:55:19.088Z,12.17
2018-06-22T00:55:23.400Z,12.17
2018-06-22T00:55:27.600Z,12.17
2018-06-22T00:55:31.698Z,12.17